sensor_id;sensor_type;location;lat;lon;timestamp;P1;durP1;ratioP1;P2;durP2;ratioP2
12721;SDS011;6425;50.316;8.114;2023-08-06T00:00:00;3.7;;;3.3;;
12721;SDS011;6425;50.316;8.114;2023-08-06T00:03:00;3.7;;;3.3;;
12721;SDS011;6425;50.316;8.114;2023-08-06T00:06:00;5.1;;;3.4;;
12721;SDS011;6425;50.316;8.114;2023-08-06T00:09:00;5.7;;;3.2;;
12721;SDS011;6425;50.316;8.114;2023-08-06T00:12:00;5.7;;;3.2;;
12721;SDS011;6425;50.316;8.114;2023-08-06T00:15:00;3.7;;;3.1;;
12721;SDS011;6425;50.316;8.114;2023-08-06T00:18:00;3.7;;;3.1;;
12721;SDS011;6425;50.316;8.114;2023-08-06T00:21:00;3.9;;;3.1;;
12721;SDS011;6425;50.316;8.114;2023-08-06T00:24:00;4.1;;;2.5;;
12721;SDS011;6425;50.316;8.114;2023-08-06T00:27:00;4.1;;;2.5;;
12721;SDS011;6425;50.316;8.114;2023-08-06T00:30:00;3.6;;;2.8;;
12721;SDS011;6425;50.316;8.114;2023-08-06T00:33:00;3.6;;;2.8;;
12721;SDS011;6425;50.316;8.114;2023-08-06T00:36:00;3.9;;;2.8;;
12721;SDS011;6425;50.316;8.114;2023-08-06T00:39:00;4.3;;;2.7;;
12721;SDS011;6425;50.316;8.114;2023-08-06T00:42:00;4.3;;;2.7;;
12721;SDS011;6425;50.316;8.114;2023-08-06T00:45:00;5;;;2.4;;
12721;SDS011;6425;50.316;8.114;2023-08-06T00:48:00;5;;;2.4;;
12721;SDS011;6425;50.316;8.114;2023-08-06T00:51:00;2.5;;;2.2;;
12721;SDS011;6425;50.316;8.114;2023-08-06T00:54:00;2.6;;;2.2;;
12721;SDS011;6425;50.316;8.114;2023-08-06T00:57:00;2.6;;;2.2;;
12721;SDS011;6425;50.316;8.114;2023-08-06T01:00:00;4.7;;;2.5;;
12721;SDS011;6425;50.316;8.114;2023-08-06T01:03:00;4.7;;;2.5;;
12721;SDS011;6425;50.316;8.114;2023-08-06T01:06:00;3.5;;;2.6;;
12721;SDS011;6425;50.316;8.114;2023-08-06T01:09:01;4.5;;;2.4;;
12721;SDS011;6425;50.316;8.114;2023-08-06T01:12:03;4.5;;;2.4;;
12721;SDS011;6425;50.316;8.114;2023-08-06T01:15:00;5.4;;;2.6;;
12721;SDS011;6425;50.316;8.114;2023-08-06T01:18:00;5.4;;;2.6;;
12721;SDS011;6425;50.316;8.114;2023-08-06T01:21:00;4.4;;;2.8;;
12721;SDS011;6425;50.316;8.114;2023-08-06T01:24:00;2.8;;;2.5;;
12721;SDS011;6425;50.316;8.114;2023-08-06T01:27:03;2.8;;;2.5;;
12721;SDS011;6425;50.316;8.114;2023-08-06T01:30:02;3.3;;;3;;
12721;SDS011;6425;50.316;8.114;2023-08-06T01:33:00;3.3;;;3;;
12721;SDS011;6425;50.316;8.114;2023-08-06T01:36:00;4.7;;;2.8;;
12721;SDS011;6425;50.316;8.114;2023-08-06T01:39:00;3.5;;;3.1;;
12721;SDS011;6425;50.316;8.114;2023-08-06T01:42:00;3.5;;;3.1;;
12721;SDS011;6425;50.316;8.114;2023-08-06T01:45:00;4.6;;;3;;
12721;SDS011;6425;50.316;8.114;2023-08-06T01:48:00;4.6;;;3;;
12721;SDS011;6425;50.316;8.114;2023-08-06T01:51:00;4;;;3.1;;
12721;SDS011;6425;50.316;8.114;2023-08-06T01:54:00;5.1;;;2.8;;
12721;SDS011;6425;50.316;8.114;2023-08-06T01:57:00;5.1;;;2.8;;
12721;SDS011;6425;50.316;8.114;2023-08-06T02:00:00;4.5;;;2.9;;
12721;SDS011;6425;50.316;8.114;2023-08-06T02:03:00;4.5;;;2.9;;
12721;SDS011;6425;50.316;8.114;2023-08-06T02:06:00;3.5;;;3.1;;
12721;SDS011;6425;50.316;8.114;2023-08-06T02:09:00;5.6;;;2.9;;
12721;SDS011;6425;50.316;8.114;2023-08-06T02:12:00;5.6;;;2.9;;
12721;SDS011;6425;50.316;8.114;2023-08-06T02:15:00;3;;;2.7;;
12721;SDS011;6425;50.316;8.114;2023-08-06T02:18:00;3;;;2.7;;
12721;SDS011;6425;50.316;8.114;2023-08-06T02:21:00;2.9;;;2.6;;
12721;SDS011;6425;50.316;8.114;2023-08-06T02:24:00;4.5;;;2.6;;
12721;SDS011;6425;50.316;8.114;2023-08-06T02:27:00;4.5;;;2.6;;
12721;SDS011;6425;50.316;8.114;2023-08-06T02:30:00;4.2;;;2.7;;
12721;SDS011;6425;50.316;8.114;2023-08-06T02:33:00;3.9;;;2.6;;
12721;SDS011;6425;50.316;8.114;2023-08-06T02:36:00;3.3;;;2.4;;
12721;SDS011;6425;50.316;8.114;2023-08-06T02:39:00;2.7;;;2.5;;
12721;SDS011;6425;50.316;8.114;2023-08-06T02:42:00;2.7;;;2.5;;
12721;SDS011;6425;50.316;8.114;2023-08-06T02:45:00;4.4;;;2.3;;
12721;SDS011;6425;50.316;8.114;2023-08-06T02:48:00;3.1;;;2.7;;
12721;SDS011;6425;50.316;8.114;2023-08-06T02:51:00;3.1;;;2.7;;
12721;SDS011;6425;50.316;8.114;2023-08-06T02:54:00;2.9;;;2.6;;
12721;SDS011;6425;50.316;8.114;2023-08-06T02:57:00;2.9;;;2.6;;
12721;SDS011;6425;50.316;8.114;2023-08-06T03:00:00;3;;;2.2;;
12721;SDS011;6425;50.316;8.114;2023-08-06T03:03:00;4.2;;;2.7;;
12721;SDS011;6425;50.316;8.114;2023-08-06T03:06:00;4.2;;;2.7;;
12721;SDS011;6425;50.316;8.114;2023-08-06T03:09:00;3.5;;;2.3;;
12721;SDS011;6425;50.316;8.114;2023-08-06T03:12:00;3.5;;;2.3;;
12721;SDS011;6425;50.316;8.114;2023-08-06T03:15:00;3.3;;;2.3;;
12721;SDS011;6425;50.316;8.114;2023-08-06T03:18:00;5.2;;;3;;
12721;SDS011;6425;50.316;8.114;2023-08-06T03:21:00;5.2;;;3;;
12721;SDS011;6425;50.316;8.114;2023-08-06T03:24:00;3.7;;;2.7;;
12721;SDS011;6425;50.316;8.114;2023-08-06T03:27:00;3.7;;;2.7;;
12721;SDS011;6425;50.316;8.114;2023-08-06T03:30:00;5.5;;;2.9;;
12721;SDS011;6425;50.316;8.114;2023-08-06T03:33:00;3.1;;;2.5;;
12721;SDS011;6425;50.316;8.114;2023-08-06T03:36:00;3.1;;;2.5;;
12721;SDS011;6425;50.316;8.114;2023-08-06T03:39:00;4;;;2.7;;
12721;SDS011;6425;50.316;8.114;2023-08-06T03:42:00;4;;;2.7;;
12721;SDS011;6425;50.316;8.114;2023-08-06T03:45:00;3.9;;;2.9;;
12721;SDS011;6425;50.316;8.114;2023-08-06T03:48:00;5.1;;;2.9;;
12721;SDS011;6425;50.316;8.114;2023-08-06T03:51:00;5.1;;;2.9;;
12721;SDS011;6425;50.316;8.114;2023-08-06T03:54:00;3.3;;;2.9;;
12721;SDS011;6425;50.316;8.114;2023-08-06T03:57:00;3.3;;;2.9;;
12721;SDS011;6425;50.316;8.114;2023-08-06T04:00:00;4.7;;;3;;
12721;SDS011;6425;50.316;8.114;2023-08-06T04:03:00;4.9;;;2.9;;
12721;SDS011;6425;50.316;8.114;2023-08-06T04:06:01;4.9;;;2.9;;
12721;SDS011;6425;50.316;8.114;2023-08-06T04:09:00;5.3;;;2.7;;
12721;SDS011;6425;50.316;8.114;2023-08-06T04:12:00;5.3;;;2.7;;
12721;SDS011;6425;50.316;8.114;2023-08-06T04:15:00;4.1;;;3.1;;
12721;SDS011;6425;50.316;8.114;2023-08-06T04:18:00;4.2;;;2.6;;
12721;SDS011;6425;50.316;8.114;2023-08-06T04:21:01;4.2;;;2.6;;
12721;SDS011;6425;50.316;8.114;2023-08-06T04:24:00;6.1;;;2.7;;
12721;SDS011;6425;50.316;8.114;2023-08-06T04:27:00;6.1;;;2.7;;
12721;SDS011;6425;50.316;8.114;2023-08-06T04:30:00;5;;;2.6;;
12721;SDS011;6425;50.316;8.114;2023-08-06T04:33:00;7;;;3.2;;
12721;SDS011;6425;50.316;8.114;2023-08-06T04:36:00;7;;;3.2;;
12721;SDS011;6425;50.316;8.114;2023-08-06T04:39:00;5.5;;;3.3;;
12721;SDS011;6425;50.316;8.114;2023-08-06T04:42:00;5.5;;;3.3;;
12721;SDS011;6425;50.316;8.114;2023-08-06T04:45:00;5.3;;;3.6;;
12721;SDS011;6425;50.316;8.114;2023-08-06T04:48:00;7.1;;;4;;
12721;SDS011;6425;50.316;8.114;2023-08-06T04:51:00;7.1;;;4;;
12721;SDS011;6425;50.316;8.114;2023-08-06T04:54:00;6.2;;;4.2;;
12721;SDS011;6425;50.316;8.114;2023-08-06T04:57:00;6.2;;;4.2;;
12721;SDS011;6425;50.316;8.114;2023-08-06T05:00:00;4.3;;;3.1;;
12721;SDS011;6425;50.316;8.114;2023-08-06T05:03:00;5.1;;;3.6;;
12721;SDS011;6425;50.316;8.114;2023-08-06T05:06:00;5.1;;;3.6;;
12721;SDS011;6425;50.316;8.114;2023-08-06T05:09:00;4.5;;;3.2;;
12721;SDS011;6425;50.316;8.114;2023-08-06T05:12:00;4.5;;;3.2;;
12721;SDS011;6425;50.316;8.114;2023-08-06T05:15:00;4.1;;;2.7;;
12721;SDS011;6425;50.316;8.114;2023-08-06T05:18:00;3.8;;;3.2;;
12721;SDS011;6425;50.316;8.114;2023-08-06T05:21:00;3.8;;;3.2;;
12721;SDS011;6425;50.316;8.114;2023-08-06T05:24:00;4.3;;;3;;
12721;SDS011;6425;50.316;8.114;2023-08-06T05:27:00;4.3;;;3;;
12721;SDS011;6425;50.316;8.114;2023-08-06T05:30:00;5.3;;;3;;
12721;SDS011;6425;50.316;8.114;2023-08-06T05:33:00;3.4;;;2.8;;
12721;SDS011;6425;50.316;8.114;2023-08-06T05:36:00;3.4;;;2.8;;
12721;SDS011;6425;50.316;8.114;2023-08-06T05:39:00;3.4;;;2.5;;
12721;SDS011;6425;50.316;8.114;2023-08-06T05:42:00;3.4;;;2.5;;
12721;SDS011;6425;50.316;8.114;2023-08-06T05:45:00;3.7;;;2.5;;
12721;SDS011;6425;50.316;8.114;2023-08-06T05:48:00;3;;;2.1;;
12721;SDS011;6425;50.316;8.114;2023-08-06T05:51:00;3;;;2.1;;
12721;SDS011;6425;50.316;8.114;2023-08-06T05:54:00;2.1;;;1.7;;
12721;SDS011;6425;50.316;8.114;2023-08-06T05:57:00;2.1;;;1.7;;
12721;SDS011;6425;50.316;8.114;2023-08-06T06:00:00;2;;;1.7;;
12721;SDS011;6425;50.316;8.114;2023-08-06T06:03:00;1.5;;;1.4;;
12721;SDS011;6425;50.316;8.114;2023-08-06T06:06:00;1.5;;;1.4;;
12721;SDS011;6425;50.316;8.114;2023-08-06T06:09:00;1.8;;;1.1;;
12721;SDS011;6425;50.316;8.114;2023-08-06T06:12:00;1.8;;;1.1;;
12721;SDS011;6425;50.316;8.114;2023-08-06T06:15:00;1.3;;;1;;
12721;SDS011;6425;50.316;8.114;2023-08-06T06:18:00;1.3;;;1.2;;
12721;SDS011;6425;50.316;8.114;2023-08-06T06:21:00;1.3;;;1.2;;
12721;SDS011;6425;50.316;8.114;2023-08-06T06:24:00;1.1;;;1;;
12721;SDS011;6425;50.316;8.114;2023-08-06T06:27:00;1.1;;;1;;
12721;SDS011;6425;50.316;8.114;2023-08-06T06:30:00;1.3;;;1;;
12721;SDS011;6425;50.316;8.114;2023-08-06T06:33:00;1.7;;;0.8;;
12721;SDS011;6425;50.316;8.114;2023-08-06T06:36:00;1.7;;;0.8;;
12721;SDS011;6425;50.316;8.114;2023-08-06T06:39:00;0.6;;;0.6;;
12721;SDS011;6425;50.316;8.114;2023-08-06T06:42:00;0.6;;;0.6;;
12721;SDS011;6425;50.316;8.114;2023-08-06T06:45:00;0.9;;;0.7;;
12721;SDS011;6425;50.316;8.114;2023-08-06T06:48:00;0.6;;;0.5;;
12721;SDS011;6425;50.316;8.114;2023-08-06T06:51:00;0.6;;;0.5;;
12721;SDS011;6425;50.316;8.114;2023-08-06T06:54:00;0.6;;;0.5;;
12721;SDS011;6425;50.316;8.114;2023-08-06T06:57:00;0.9;;;0.4;;
12721;SDS011;6425;50.316;8.114;2023-08-06T07:00:00;2.1;;;0.4;;
12721;SDS011;6425;50.316;8.114;2023-08-06T07:03:00;1.9;;;0.5;;
12721;SDS011;6425;50.316;8.114;2023-08-06T07:06:00;1.9;;;0.5;;
12721;SDS011;6425;50.316;8.114;2023-08-06T07:09:00;0.4;;;0.4;;
12721;SDS011;6425;50.316;8.114;2023-08-06T07:12:00;0.5;;;0.3;;
12721;SDS011;6425;50.316;8.114;2023-08-06T07:15:00;0.5;;;0.3;;
12721;SDS011;6425;50.316;8.114;2023-08-06T07:18:00;1;;;0.5;;
12721;SDS011;6425;50.316;8.114;2023-08-06T07:21:00;1;;;0.5;;
12721;SDS011;6425;50.316;8.114;2023-08-06T07:24:00;1.7;;;0.3;;
12721;SDS011;6425;50.316;8.114;2023-08-06T07:27:00;1.2;;;0.3;;
12721;SDS011;6425;50.316;8.114;2023-08-06T07:30:00;1.2;;;0.3;;
12721;SDS011;6425;50.316;8.114;2023-08-06T07:33:00;1.1;;;0.3;;
12721;SDS011;6425;50.316;8.114;2023-08-06T07:36:06;1.1;;;0.3;;
12721;SDS011;6425;50.316;8.114;2023-08-06T07:39:00;0.8;;;0.3;;
12721;SDS011;6425;50.316;8.114;2023-08-06T07:42:00;0.2;;;0.2;;
12721;SDS011;6425;50.316;8.114;2023-08-06T07:45:00;0.2;;;0.2;;
12721;SDS011;6425;50.316;8.114;2023-08-06T07:48:00;0.4;;;0.3;;
12721;SDS011;6425;50.316;8.114;2023-08-06T07:51:00;0.4;;;0.3;;
12721;SDS011;6425;50.316;8.114;2023-08-06T07:54:00;0.9;;;0.2;;
12721;SDS011;6425;50.316;8.114;2023-08-06T07:57:00;0.3;;;0.3;;
12721;SDS011;6425;50.316;8.114;2023-08-06T08:00:00;0.3;;;0.3;;
12721;SDS011;6425;50.316;8.114;2023-08-06T08:03:00;0.8;;;0.3;;
12721;SDS011;6425;50.316;8.114;2023-08-06T08:06:00;0.8;;;0.3;;
12721;SDS011;6425;50.316;8.114;2023-08-06T08:09:00;1.6;;;0.4;;
12721;SDS011;6425;50.316;8.114;2023-08-06T08:12:00;0.8;;;0.4;;
12721;SDS011;6425;50.316;8.114;2023-08-06T08:15:00;0.8;;;0.4;;
12721;SDS011;6425;50.316;8.114;2023-08-06T08:18:00;0.7;;;0.4;;
12721;SDS011;6425;50.316;8.114;2023-08-06T08:21:00;0.7;;;0.4;;
12721;SDS011;6425;50.316;8.114;2023-08-06T08:24:00;1.2;;;0.4;;
12721;SDS011;6425;50.316;8.114;2023-08-06T08:27:00;0.9;;;0.5;;
12721;SDS011;6425;50.316;8.114;2023-08-06T08:30:00;0.9;;;0.5;;
12721;SDS011;6425;50.316;8.114;2023-08-06T08:33:00;0.9;;;0.4;;
12721;SDS011;6425;50.316;8.114;2023-08-06T08:36:00;0.9;;;0.4;;
12721;SDS011;6425;50.316;8.114;2023-08-06T08:39:00;1.6;;;0.4;;
12721;SDS011;6425;50.316;8.114;2023-08-06T08:42:00;1.1;;;0.4;;
12721;SDS011;6425;50.316;8.114;2023-08-06T08:45:00;1.1;;;0.4;;
12721;SDS011;6425;50.316;8.114;2023-08-06T08:48:00;0.4;;;0.4;;
12721;SDS011;6425;50.316;8.114;2023-08-06T08:51:00;0.4;;;0.4;;
12721;SDS011;6425;50.316;8.114;2023-08-06T08:54:00;1.2;;;0.5;;
12721;SDS011;6425;50.316;8.114;2023-08-06T08:57:00;0.4;;;0.3;;
12721;SDS011;6425;50.316;8.114;2023-08-06T09:00:00;0.4;;;0.3;;
12721;SDS011;6425;50.316;8.114;2023-08-06T09:03:00;1.2;;;0.4;;
12721;SDS011;6425;50.316;8.114;2023-08-06T09:06:00;1.2;;;0.4;;
12721;SDS011;6425;50.316;8.114;2023-08-06T09:09:01;0.2;;;0.2;;
12721;SDS011;6425;50.316;8.114;2023-08-06T09:12:00;0.4;;;0.3;;
12721;SDS011;6425;50.316;8.114;2023-08-06T09:15:00;0.4;;;0.3;;
12721;SDS011;6425;50.316;8.114;2023-08-06T09:18:00;0.5;;;0.4;;
12721;SDS011;6425;50.316;8.114;2023-08-06T09:21:00;0.5;;;0.4;;
12721;SDS011;6425;50.316;8.114;2023-08-06T09:24:00;0.7;;;0.3;;
12721;SDS011;6425;50.316;8.114;2023-08-06T09:27:00;0.9;;;0.3;;
12721;SDS011;6425;50.316;8.114;2023-08-06T09:30:00;0.9;;;0.3;;
12721;SDS011;6425;50.316;8.114;2023-08-06T09:33:00;0.6;;;0.3;;
12721;SDS011;6425;50.316;8.114;2023-08-06T09:36:06;0.6;;;0.3;;
12721;SDS011;6425;50.316;8.114;2023-08-06T09:39:00;0.8;;;0.3;;
12721;SDS011;6425;50.316;8.114;2023-08-06T09:42:00;0.3;;;0.3;;
12721;SDS011;6425;50.316;8.114;2023-08-06T09:45:05;0.3;;;0.3;;
12721;SDS011;6425;50.316;8.114;2023-08-06T09:48:00;0.7;;;0.3;;
12721;SDS011;6425;50.316;8.114;2023-08-06T09:51:00;0.7;;;0.3;;
12721;SDS011;6425;50.316;8.114;2023-08-06T09:54:00;0.7;;;0.3;;
12721;SDS011;6425;50.316;8.114;2023-08-06T09:57:00;0.2;;;0.2;;
12721;SDS011;6425;50.316;8.114;2023-08-06T10:00:00;0.2;;;0.2;;
12721;SDS011;6425;50.316;8.114;2023-08-06T10:03:00;0.3;;;0.3;;
12721;SDS011;6425;50.316;8.114;2023-08-06T10:06:00;0.3;;;0.3;;
12721;SDS011;6425;50.316;8.114;2023-08-06T10:09:00;0.9;;;0.2;;
12721;SDS011;6425;50.316;8.114;2023-08-06T10:12:00;1;;;0.3;;
12721;SDS011;6425;50.316;8.114;2023-08-06T10:15:01;1;;;0.3;;
12721;SDS011;6425;50.316;8.114;2023-08-06T10:18:00;0.8;;;0.4;;
12721;SDS011;6425;50.316;8.114;2023-08-06T10:21:00;0.8;;;0.4;;
12721;SDS011;6425;50.316;8.114;2023-08-06T10:24:00;1;;;0.6;;
12721;SDS011;6425;50.316;8.114;2023-08-06T10:27:00;0.6;;;0.4;;
12721;SDS011;6425;50.316;8.114;2023-08-06T10:30:31;0.6;;;0.4;;
12721;SDS011;6425;50.316;8.114;2023-08-06T10:33:00;0.8;;;0.4;;
12721;SDS011;6425;50.316;8.114;2023-08-06T10:36:00;0.8;;;0.4;;
12721;SDS011;6425;50.316;8.114;2023-08-06T10:39:00;1.3;;;0.6;;
12721;SDS011;6425;50.316;8.114;2023-08-06T10:42:01;0.8;;;0.4;;
12721;SDS011;6425;50.316;8.114;2023-08-06T10:45:16;0.8;;;0.4;;
12721;SDS011;6425;50.316;8.114;2023-08-06T10:48:00;0.4;;;0.4;;
12721;SDS011;6425;50.316;8.114;2023-08-06T10:51:00;0.4;;;0.4;;
12721;SDS011;6425;50.316;8.114;2023-08-06T10:54:00;0.4;;;0.4;;
12721;SDS011;6425;50.316;8.114;2023-08-06T10:57:00;1.1;;;0.5;;
12721;SDS011;6425;50.316;8.114;2023-08-06T11:00:00;1.1;;;0.5;;
12721;SDS011;6425;50.316;8.114;2023-08-06T11:03:00;0.5;;;0.5;;
12721;SDS011;6425;50.316;8.114;2023-08-06T11:06:00;0.5;;;0.5;;
12721;SDS011;6425;50.316;8.114;2023-08-06T11:09:01;1.6;;;0.4;;
12721;SDS011;6425;50.316;8.114;2023-08-06T11:12:00;0.6;;;0.3;;
12721;SDS011;6425;50.316;8.114;2023-08-06T11:15:00;0.6;;;0.3;;
12721;SDS011;6425;50.316;8.114;2023-08-06T11:18:00;0.5;;;0.3;;
12721;SDS011;6425;50.316;8.114;2023-08-06T11:21:00;0.5;;;0.3;;
12721;SDS011;6425;50.316;8.114;2023-08-06T11:24:00;0.8;;;0.2;;
12721;SDS011;6425;50.316;8.114;2023-08-06T11:27:00;0.8;;;0.2;;
12721;SDS011;6425;50.316;8.114;2023-08-06T11:30:00;0.8;;;0.2;;
12721;SDS011;6425;50.316;8.114;2023-08-06T11:33:00;0.4;;;0.3;;
12721;SDS011;6425;50.316;8.114;2023-08-06T11:36:00;0.4;;;0.3;;
12721;SDS011;6425;50.316;8.114;2023-08-06T11:39:00;0.8;;;0.3;;
12721;SDS011;6425;50.316;8.114;2023-08-06T11:42:00;0.3;;;0.3;;
12721;SDS011;6425;50.316;8.114;2023-08-06T11:45:00;0.3;;;0.3;;
12721;SDS011;6425;50.316;8.114;2023-08-06T11:48:00;1.4;;;0.5;;
12721;SDS011;6425;50.316;8.114;2023-08-06T11:51:00;0.9;;;0.6;;
12721;SDS011;6425;50.316;8.114;2023-08-06T11:54:00;0.8;;;0.7;;
12721;SDS011;6425;50.316;8.114;2023-08-06T11:57:00;0.8;;;0.5;;
12721;SDS011;6425;50.316;8.114;2023-08-06T12:00:01;0.8;;;0.5;;
12721;SDS011;6425;50.316;8.114;2023-08-06T12:03:00;1.8;;;0.6;;
12721;SDS011;6425;50.316;8.114;2023-08-06T12:06:00;0.6;;;0.5;;
12721;SDS011;6425;50.316;8.114;2023-08-06T12:09:00;0.6;;;0.5;;
12721;SDS011;6425;50.316;8.114;2023-08-06T12:12:00;1.4;;;0.6;;
12721;SDS011;6425;50.316;8.114;2023-08-06T12:15:00;1.4;;;0.6;;
12721;SDS011;6425;50.316;8.114;2023-08-06T12:18:00;0.9;;;0.5;;
12721;SDS011;6425;50.316;8.114;2023-08-06T12:21:00;0.7;;;0.4;;
12721;SDS011;6425;50.316;8.114;2023-08-06T12:24:00;0.7;;;0.4;;
12721;SDS011;6425;50.316;8.114;2023-08-06T12:27:00;0.7;;;0.5;;
12721;SDS011;6425;50.316;8.114;2023-08-06T12:30:00;0.7;;;0.5;;
12721;SDS011;6425;50.316;8.114;2023-08-06T12:33:00;0.4;;;0.4;;
12721;SDS011;6425;50.316;8.114;2023-08-06T12:36:00;0.8;;;0.4;;
12721;SDS011;6425;50.316;8.114;2023-08-06T12:39:00;0.8;;;0.4;;
12721;SDS011;6425;50.316;8.114;2023-08-06T12:42:00;2.2;;;0.5;;
12721;SDS011;6425;50.316;8.114;2023-08-06T12:45:00;2.2;;;0.5;;
12721;SDS011;6425;50.316;8.114;2023-08-06T12:48:00;1.8;;;0.5;;
12721;SDS011;6425;50.316;8.114;2023-08-06T12:51:00;0.6;;;0.5;;
12721;SDS011;6425;50.316;8.114;2023-08-06T12:54:00;0.6;;;0.5;;
12721;SDS011;6425;50.316;8.114;2023-08-06T12:57:00;1.8;;;0.6;;
12721;SDS011;6425;50.316;8.114;2023-08-06T13:00:00;1.8;;;0.6;;
12721;SDS011;6425;50.316;8.114;2023-08-06T13:03:00;0.8;;;0.4;;
12721;SDS011;6425;50.316;8.114;2023-08-06T13:06:00;0.3;;;0.3;;
12721;SDS011;6425;50.316;8.114;2023-08-06T13:09:00;0.3;;;0.3;;
12721;SDS011;6425;50.316;8.114;2023-08-06T13:12:00;1;;;0.4;;
12721;SDS011;6425;50.316;8.114;2023-08-06T13:15:00;1;;;0.4;;
12721;SDS011;6425;50.316;8.114;2023-08-06T13:18:00;0.7;;;0.4;;
12721;SDS011;6425;50.316;8.114;2023-08-06T13:21:00;1.2;;;0.5;;
12721;SDS011;6425;50.316;8.114;2023-08-06T13:24:00;1.2;;;0.5;;
12721;SDS011;6425;50.316;8.114;2023-08-06T13:27:00;1.3;;;0.5;;
12721;SDS011;6425;50.316;8.114;2023-08-06T13:30:00;1.3;;;0.5;;
12721;SDS011;6425;50.316;8.114;2023-08-06T13:33:00;1.8;;;0.4;;
12721;SDS011;6425;50.316;8.114;2023-08-06T13:40:34;1.8;;;0.4;;
12721;SDS011;6425;50.316;8.114;2023-08-06T13:40:34;1.8;;;0.4;;
12721;SDS011;6425;50.316;8.114;2023-08-06T13:42:00;0.7;;;0.4;;
12721;SDS011;6425;50.316;8.114;2023-08-06T13:45:00;0.7;;;0.4;;
12721;SDS011;6425;50.316;8.114;2023-08-06T13:48:00;2;;;0.5;;
12721;SDS011;6425;50.316;8.114;2023-08-06T13:51:00;0.7;;;0.3;;
12721;SDS011;6425;50.316;8.114;2023-08-06T13:54:00;0.7;;;0.3;;
12721;SDS011;6425;50.316;8.114;2023-08-06T13:57:00;0.4;;;0.3;;
12721;SDS011;6425;50.316;8.114;2023-08-06T14:00:00;0.4;;;0.3;;
12721;SDS011;6425;50.316;8.114;2023-08-06T14:03:00;1.4;;;0.6;;
12721;SDS011;6425;50.316;8.114;2023-08-06T14:06:00;1.8;;;0.5;;
12721;SDS011;6425;50.316;8.114;2023-08-06T14:09:00;1.8;;;0.5;;
12721;SDS011;6425;50.316;8.114;2023-08-06T14:12:00;2.3;;;0.5;;
12721;SDS011;6425;50.316;8.114;2023-08-06T14:15:00;2.3;;;0.5;;
12721;SDS011;6425;50.316;8.114;2023-08-06T14:18:00;1.2;;;0.3;;
12721;SDS011;6425;50.316;8.114;2023-08-06T14:21:00;1.5;;;0.5;;
12721;SDS011;6425;50.316;8.114;2023-08-06T14:24:00;1.5;;;0.5;;
12721;SDS011;6425;50.316;8.114;2023-08-06T14:27:00;0.7;;;0.4;;
12721;SDS011;6425;50.316;8.114;2023-08-06T14:30:00;0.7;;;0.4;;
12721;SDS011;6425;50.316;8.114;2023-08-06T14:33:00;0.6;;;0.3;;
12721;SDS011;6425;50.316;8.114;2023-08-06T14:36:00;1.6;;;0.4;;
12721;SDS011;6425;50.316;8.114;2023-08-06T14:39:00;1.6;;;0.4;;
12721;SDS011;6425;50.316;8.114;2023-08-06T14:42:00;1.2;;;0.5;;
12721;SDS011;6425;50.316;8.114;2023-08-06T14:45:00;1.2;;;0.5;;
12721;SDS011;6425;50.316;8.114;2023-08-06T14:48:00;0.6;;;0.4;;
12721;SDS011;6425;50.316;8.114;2023-08-06T14:51:00;1.4;;;0.5;;
12721;SDS011;6425;50.316;8.114;2023-08-06T14:54:00;1.4;;;0.5;;
12721;SDS011;6425;50.316;8.114;2023-08-06T14:57:00;0.7;;;0.4;;
12721;SDS011;6425;50.316;8.114;2023-08-06T15:00:00;0.7;;;0.4;;
12721;SDS011;6425;50.316;8.114;2023-08-06T15:03:00;0.9;;;0.7;;
12721;SDS011;6425;50.316;8.114;2023-08-06T15:06:00;0.6;;;0.4;;
12721;SDS011;6425;50.316;8.114;2023-08-06T15:09:00;0.6;;;0.4;;
12721;SDS011;6425;50.316;8.114;2023-08-06T15:12:00;0.8;;;0.6;;
12721;SDS011;6425;50.316;8.114;2023-08-06T15:15:00;0.8;;;0.6;;
12721;SDS011;6425;50.316;8.114;2023-08-06T15:18:00;1.6;;;0.9;;
12721;SDS011;6425;50.316;8.114;2023-08-06T15:21:00;0.6;;;0.5;;
12721;SDS011;6425;50.316;8.114;2023-08-06T15:24:00;0.6;;;0.5;;
12721;SDS011;6425;50.316;8.114;2023-08-06T15:27:00;1.3;;;0.6;;
12721;SDS011;6425;50.316;8.114;2023-08-06T15:30:00;1.3;;;0.6;;
12721;SDS011;6425;50.316;8.114;2023-08-06T15:33:00;0.5;;;0.4;;
12721;SDS011;6425;50.316;8.114;2023-08-06T15:36:00;1.2;;;0.4;;
12721;SDS011;6425;50.316;8.114;2023-08-06T15:39:00;1.2;;;0.4;;
12721;SDS011;6425;50.316;8.114;2023-08-06T15:42:00;0.4;;;0.3;;
12721;SDS011;6425;50.316;8.114;2023-08-06T15:45:00;0.4;;;0.3;;
12721;SDS011;6425;50.316;8.114;2023-08-06T15:48:00;1;;;0.4;;
12721;SDS011;6425;50.316;8.114;2023-08-06T15:51:00;0.7;;;0.4;;
12721;SDS011;6425;50.316;8.114;2023-08-06T15:54:00;0.7;;;0.4;;
12721;SDS011;6425;50.316;8.114;2023-08-06T15:57:00;1.1;;;0.3;;
12721;SDS011;6425;50.316;8.114;2023-08-06T16:00:00;3;;;0.5;;
12721;SDS011;6425;50.316;8.114;2023-08-06T16:03:00;3.7;;;0.6;;
12721;SDS011;6425;50.316;8.114;2023-08-06T16:06:00;0.7;;;0.4;;
12721;SDS011;6425;50.316;8.114;2023-08-06T16:09:00;0.7;;;0.4;;
12721;SDS011;6425;50.316;8.114;2023-08-06T16:12:00;0.8;;;0.3;;
12721;SDS011;6425;50.316;8.114;2023-08-06T16:15:00;0.8;;;0.4;;
12721;SDS011;6425;50.316;8.114;2023-08-06T16:18:00;0.8;;;0.4;;
12721;SDS011;6425;50.316;8.114;2023-08-06T16:21:00;1;;;0.3;;
12721;SDS011;6425;50.316;8.114;2023-08-06T16:24:00;1;;;0.3;;
12721;SDS011;6425;50.316;8.114;2023-08-06T16:27:00;0.7;;;0.4;;
12721;SDS011;6425;50.316;8.114;2023-08-06T16:30:00;1.6;;;0.2;;
12721;SDS011;6425;50.316;8.114;2023-08-06T16:33:00;1.6;;;0.2;;
12721;SDS011;6425;50.316;8.114;2023-08-06T16:36:00;0.5;;;0.2;;
12721;SDS011;6425;50.316;8.114;2023-08-06T16:39:01;0.5;;;0.2;;
12721;SDS011;6425;50.316;8.114;2023-08-06T16:42:00;0.6;;;0.2;;
12721;SDS011;6425;50.316;8.114;2023-08-06T16:45:00;0.7;;;0.4;;
12721;SDS011;6425;50.316;8.114;2023-08-06T16:48:00;0.7;;;0.4;;
12721;SDS011;6425;50.316;8.114;2023-08-06T16:51:00;1.6;;;0.3;;
12721;SDS011;6425;50.316;8.114;2023-08-06T16:54:00;1.6;;;0.3;;
12721;SDS011;6425;50.316;8.114;2023-08-06T16:57:00;1.2;;;0.2;;
12721;SDS011;6425;50.316;8.114;2023-08-06T17:00:00;1.7;;;0.3;;
12721;SDS011;6425;50.316;8.114;2023-08-06T17:03:00;1.7;;;0.3;;
12721;SDS011;6425;50.316;8.114;2023-08-06T17:06:00;0.2;;;0.2;;
12721;SDS011;6425;50.316;8.114;2023-08-06T17:09:00;0.2;;;0.2;;
12721;SDS011;6425;50.316;8.114;2023-08-06T17:12:00;0.4;;;0.2;;
12721;SDS011;6425;50.316;8.114;2023-08-06T17:15:00;1;;;0.3;;
12721;SDS011;6425;50.316;8.114;2023-08-06T17:18:00;1;;;0.3;;
12721;SDS011;6425;50.316;8.114;2023-08-06T17:21:00;0.3;;;0.2;;
12721;SDS011;6425;50.316;8.114;2023-08-06T17:24:00;0.3;;;0.2;;
12721;SDS011;6425;50.316;8.114;2023-08-06T17:27:00;0.3;;;0.3;;
12721;SDS011;6425;50.316;8.114;2023-08-06T17:30:00;1.8;;;0.4;;
12721;SDS011;6425;50.316;8.114;2023-08-06T17:33:00;1.8;;;0.4;;
12721;SDS011;6425;50.316;8.114;2023-08-06T17:36:00;0.2;;;0.2;;
12721;SDS011;6425;50.316;8.114;2023-08-06T17:39:00;0.2;;;0.2;;
12721;SDS011;6425;50.316;8.114;2023-08-06T17:42:00;0.8;;;0.2;;
12721;SDS011;6425;50.316;8.114;2023-08-06T17:45:00;0.7;;;0.2;;
12721;SDS011;6425;50.316;8.114;2023-08-06T17:48:00;0.7;;;0.2;;
12721;SDS011;6425;50.316;8.114;2023-08-06T17:51:00;0.8;;;0.3;;
12721;SDS011;6425;50.316;8.114;2023-08-06T17:54:00;0.8;;;0.3;;
12721;SDS011;6425;50.316;8.114;2023-08-06T17:57:00;0.3;;;0.3;;
12721;SDS011;6425;50.316;8.114;2023-08-06T18:00:00;1.8;;;0.3;;
12721;SDS011;6425;50.316;8.114;2023-08-06T18:03:00;1.8;;;0.3;;
12721;SDS011;6425;50.316;8.114;2023-08-06T18:06:00;0.5;;;0.3;;
12721;SDS011;6425;50.316;8.114;2023-08-06T18:09:00;0.5;;;0.3;;
12721;SDS011;6425;50.316;8.114;2023-08-06T18:12:00;1.5;;;0.4;;
12721;SDS011;6425;50.316;8.114;2023-08-06T18:15:00;0.7;;;0.4;;
12721;SDS011;6425;50.316;8.114;2023-08-06T18:18:00;0.7;;;0.4;;
12721;SDS011;6425;50.316;8.114;2023-08-06T18:21:00;0.8;;;0.4;;
12721;SDS011;6425;50.316;8.114;2023-08-06T18:24:00;0.8;;;0.4;;
12721;SDS011;6425;50.316;8.114;2023-08-06T18:27:00;0.4;;;0.3;;
12721;SDS011;6425;50.316;8.114;2023-08-06T18:30:00;0.5;;;0.3;;
12721;SDS011;6425;50.316;8.114;2023-08-06T18:33:00;0.5;;;0.3;;
12721;SDS011;6425;50.316;8.114;2023-08-06T18:36:00;0.9;;;0.4;;
12721;SDS011;6425;50.316;8.114;2023-08-06T18:39:00;0.9;;;0.4;;
12721;SDS011;6425;50.316;8.114;2023-08-06T18:42:00;0.7;;;0.3;;
12721;SDS011;6425;50.316;8.114;2023-08-06T18:45:00;2.7;;;0.5;;
12721;SDS011;6425;50.316;8.114;2023-08-06T18:48:00;2.7;;;0.5;;
12721;SDS011;6425;50.316;8.114;2023-08-06T18:51:00;0.6;;;0.4;;
12721;SDS011;6425;50.316;8.114;2023-08-06T18:54:00;0.6;;;0.4;;
12721;SDS011;6425;50.316;8.114;2023-08-06T18:57:00;1.3;;;0.3;;
12721;SDS011;6425;50.316;8.114;2023-08-06T19:00:00;0.5;;;0.5;;